sensor_id;sensor_type;location;lat;lon;timestamp;temperature;humidity
39277;DHT22;63149;48.086;-1.606;2022-11-18T06:34:09;7.00;99.90
39277;DHT22;63149;48.086;-1.606;2022-11-18T06:36:35;7.10;99.90
39277;DHT22;63149;48.086;-1.606;2022-11-18T06:39:02;7.10;99.90
39277;DHT22;63149;48.086;-1.606;2022-11-18T06:41:29;7.00;99.90
39277;DHT22;63149;48.086;-1.606;2022-11-18T06:43:56;7.00;99.90
39277;DHT22;63149;48.086;-1.606;2022-11-18T06:46:22;7.00;99.90
39277;DHT22;63149;48.086;-1.606;2022-11-18T06:49:06;7.10;99.90
39277;DHT22;63149;48.086;-1.606;2022-11-18T06:51:34;7.00;99.90
39277;DHT22;63149;48.086;-1.606;2022-11-18T06:54:01;7.00;99.90
39277;DHT22;63149;48.086;-1.606;2022-11-18T06:56:28;7.00;99.90
39277;DHT22;63149;48.086;-1.606;2022-11-18T06:58:55;7.10;99.90
39277;DHT22;63149;48.086;-1.606;2022-11-18T07:01:23;7.10;99.90
39277;DHT22;63149;48.086;-1.606;2022-11-18T07:03:50;7.10;99.90
39277;DHT22;63149;48.086;-1.606;2022-11-18T07:06:17;7.10;99.90
39277;DHT22;63149;48.086;-1.606;2022-11-18T07:08:46;7.10;99.90
39277;DHT22;63149;48.086;-1.606;2022-11-18T07:11:13;7.10;99.90
39277;DHT22;63149;48.086;-1.606;2022-11-18T07:13:40;7.10;99.90
39277;DHT22;63149;48.086;-1.606;2022-11-18T07:16:08;7.20;99.90
39277;DHT22;63149;48.086;-1.606;2022-11-18T07:18:36;7.10;99.90
39277;DHT22;63149;48.086;-1.606;2022-11-18T07:21:03;7.10;99.90
39277;DHT22;63149;48.086;-1.606;2022-11-18T07:23:30;7.10;99.90
39277;DHT22;63149;48.086;-1.606;2022-11-18T07:25:58;7.10;99.90
39277;DHT22;63149;48.086;-1.606;2022-11-18T07:28:25;7.10;99.90
39277;DHT22;63149;48.086;-1.606;2022-11-18T07:30:51;7.10;99.90
39277;DHT22;63149;48.086;-1.606;2022-11-18T07:33:18;7.10;99.90
39277;DHT22;63149;48.086;-1.606;2022-11-18T07:35:45;7.10;99.90
39277;DHT22;63149;48.086;-1.606;2022-11-18T07:38:11;7.10;99.90
39277;DHT22;63149;48.086;-1.606;2022-11-18T07:40:38;7.10;99.90
39277;DHT22;63149;48.086;-1.606;2022-11-18T07:43:06;7.10;99.90
39277;DHT22;63149;48.086;-1.606;2022-11-18T07:45:33;7.10;99.90
39277;DHT22;63149;48.086;-1.606;2022-11-18T07:48:00;7.10;99.90
39277;DHT22;63149;48.086;-1.606;2022-11-18T07:50:26;7.20;99.90
39277;DHT22;63149;48.086;-1.606;2022-11-18T07:52:54;7.10;99.90
39277;DHT22;63149;48.086;-1.606;2022-11-18T07:55:20;7.20;99.90
39277;DHT22;63149;48.086;-1.606;2022-11-18T07:57:47;7.20;99.90
39277;DHT22;63149;48.086;-1.606;2022-11-18T08:00:16;7.20;99.90
39277;DHT22;63149;48.086;-1.606;2022-11-18T08:02:43;7.20;99.90
39277;DHT22;63149;48.086;-1.606;2022-11-18T08:05:09;7.20;99.90
39277;DHT22;63149;48.086;-1.606;2022-11-18T08:07:36;7.20;99.90
39277;DHT22;63149;48.086;-1.606;2022-11-18T08:10:03;7.20;99.90
39277;DHT22;63149;48.086;-1.606;2022-11-18T08:12:30;7.30;99.90
39277;DHT22;63149;48.086;-1.606;2022-11-18T08:14:56;7.30;99.90
39277;DHT22;63149;48.086;-1.606;2022-11-18T08:17:25;7.30;99.90
39277;DHT22;63149;48.086;-1.606;2022-11-18T08:19:51;7.40;99.90
39277;DHT22;63149;48.086;-1.606;2022-11-18T08:22:18;7.50;99.90
39277;DHT22;63149;48.086;-1.606;2022-11-18T08:24:45;7.50;99.90
39277;DHT22;63149;48.086;-1.606;2022-11-18T08:27:11;7.50;99.90
39277;DHT22;63149;48.086;-1.606;2022-11-18T08:29:38;7.60;99.90
39277;DHT22;63149;48.086;-1.606;2022-11-18T08:32:05;7.60;99.90
39277;DHT22;63149;48.086;-1.606;2022-11-18T08:34:33;7.70;99.90
39277;DHT22;63149;48.086;-1.606;2022-11-18T08:37:00;7.80;99.90
39277;DHT22;63149;48.086;-1.606;2022-11-18T08:39:26;7.80;99.90
39277;DHT22;63149;48.086;-1.606;2022-11-18T08:41:53;7.90;99.90
39277;DHT22;63149;48.086;-1.606;2022-11-18T08:44:20;8.00;99.90
39277;DHT22;63149;48.086;-1.606;2022-11-18T08:46:46;8.00;99.90
39277;DHT22;63149;48.086;-1.606;2022-11-18T08:49:13;8.10;99.90
39277;DHT22;63149;48.086;-1.606;2022-11-18T08:51:41;8.20;99.90
39277;DHT22;63149;48.086;-1.606;2022-11-18T08:54:08;8.30;99.90
39277;DHT22;63149;48.086;-1.606;2022-11-18T08:56:35;8.40;99.90
39277;DHT22;63149;48.086;-1.606;2022-11-18T08:59:02;8.50;99.90
39277;DHT22;63149;48.086;-1.606;2022-11-18T09:01:28;8.50;99.90
39277;DHT22;63149;48.086;-1.606;2022-11-18T09:03:55;8.70;99.90
39277;DHT22;63149;48.086;-1.606;2022-11-18T09:06:22;8.80;99.90
39277;DHT22;63149;48.086;-1.606;2022-11-18T09:08:51;8.90;99.90
39277;DHT22;63149;48.086;-1.606;2022-11-18T09:11:18;9.00;99.90
39277;DHT22;63149;48.086;-1.606;2022-11-18T09:13:47;9.10;99.90
39277;DHT22;63149;48.086;-1.606;2022-11-18T09:16:16;9.20;99.90
39277;DHT22;63149;48.086;-1.606;2022-11-18T09:18:43;9.30;99.90
39277;DHT22;63149;48.086;-1.606;2022-11-18T09:21:10;9.30;99.90
39277;DHT22;63149;48.086;-1.606;2022-11-18T09:23:37;9.40;99.90
39277;DHT22;63149;48.086;-1.606;2022-11-18T09:26:06;9.50;99.90
39277;DHT22;63149;48.086;-1.606;2022-11-18T09:28:33;9.70;99.90
39277;DHT22;63149;48.086;-1.606;2022-11-18T09:31:01;9.80;99.90
39277;DHT22;63149;48.086;-1.606;2022-11-18T09:33:28;10.50;99.90
39277;DHT22;63149;48.086;-1.606;2022-11-18T09:35:55;13.10;99.90
39277;DHT22;63149;48.086;-1.606;2022-11-18T09:38:22;14.40;99.90
39277;DHT22;63149;48.086;-1.606;2022-11-18T09:40:51;14.70;99.90
39277;DHT22;63149;48.086;-1.606;2022-11-18T09:43:22;15.70;99.90
39277;DHT22;63149;48.086;-1.606;2022-11-18T09:45:55;16.00;99.90
39277;DHT22;63149;48.086;-1.606;2022-11-18T09:48:24;15.90;99.90
39277;DHT22;63149;48.086;-1.606;2022-11-18T09:51:11;16.50;99.90
39277;DHT22;63149;48.086;-1.606;2022-11-18T09:53:38;17.10;99.90
39277;DHT22;63149;48.086;-1.606;2022-11-18T09:56:07;17.20;99.90
39277;DHT22;63149;48.086;-1.606;2022-11-18T09:58:39;17.40;99.90
39277;DHT22;63149;48.086;-1.606;2022-11-18T10:01:08;18.20;99.90
39277;DHT22;63149;48.086;-1.606;2022-11-18T10:03:37;16.90;99.90
39277;DHT22;63149;48.086;-1.606;2022-11-18T10:06:09;15.10;99.90
39277;DHT22;63149;48.086;-1.606;2022-11-18T10:08:39;17.20;99.90
39277;DHT22;63149;48.086;-1.606;2022-11-18T10:11:09;17.80;99.90
39277;DHT22;63149;48.086;-1.606;2022-11-18T10:13:42;17.80;99.90
39277;DHT22;63149;48.086;-1.606;2022-11-18T10:16:14;15.10;99.90
39277;DHT22;63149;48.086;-1.606;2022-11-18T10:18:46;14.70;99.90
39277;DHT22;63149;48.086;-1.606;2022-11-18T10:21:16;14.20;99.90
39277;DHT22;63149;48.086;-1.606;2022-11-18T10:23:44;13.40;99.90
39277;DHT22;63149;48.086;-1.606;2022-11-18T10:26:14;13.80;99.90
39277;DHT22;63149;48.086;-1.606;2022-11-18T10:28:42;13.40;99.90
39277;DHT22;63149;48.086;-1.606;2022-11-18T10:31:10;12.90;99.90
39277;DHT22;63149;48.086;-1.606;2022-11-18T10:33:37;12.90;99.90
39277;DHT22;63149;48.086;-1.606;2022-11-18T10:36:08;12.70;99.90
39277;DHT22;63149;48.086;-1.606;2022-11-18T10:38:35;12.60;99.90
39277;DHT22;63149;48.086;-1.606;2022-11-18T10:41:02;12.50;99.90
39277;DHT22;63149;48.086;-1.606;2022-11-18T10:43:45;12.50;99.90
39277;DHT22;63149;48.086;-1.606;2022-11-18T10:46:22;12.40;99.90
39277;DHT22;63149;48.086;-1.606;2022-11-18T10:51:31;12.30;99.90
39277;DHT22;63149;48.086;-1.606;2022-11-18T10:54:05;12.30;99.90
39277;DHT22;63149;48.086;-1.606;2022-11-18T10:56:36;12.40;99.90
39277;DHT22;63149;48.086;-1.606;2022-11-18T10:59:11;12.40;99.90
39277;DHT22;63149;48.086;-1.606;2022-11-18T11:01:42;12.30;99.90
39277;DHT22;63149;48.086;-1.606;2022-11-18T11:04:22;12.40;99.90
39277;DHT22;63149;48.086;-1.606;2022-11-18T11:06:49;12.30;99.90
39277;DHT22;63149;48.086;-1.606;2022-11-18T11:09:22;12.40;99.90
39277;DHT22;63149;48.086;-1.606;2022-11-18T11:11:54;12.30;99.90
39277;DHT22;63149;48.086;-1.606;2022-11-18T11:14:25;12.30;99.90
39277;DHT22;63149;48.086;-1.606;2022-11-18T11:16:55;12.30;99.90
39277;DHT22;63149;48.086;-1.606;2022-11-18T11:19:24;12.30;99.90
39277;DHT22;63149;48.086;-1.606;2022-11-18T11:21:52;12.30;99.90
39277;DHT22;63149;48.086;-1.606;2022-11-18T11:24:18;12.40;99.90
39277;DHT22;63149;48.086;-1.606;2022-11-18T11:26:49;12.60;99.90
39277;DHT22;63149;48.086;-1.606;2022-11-18T11:29:20;12.50;99.90
39277;DHT22;63149;48.086;-1.606;2022-11-18T11:31:52;12.50;99.90
39277;DHT22;63149;48.086;-1.606;2022-11-18T11:34:22;12.40;99.90
39277;DHT22;63149;48.086;-1.606;2022-11-18T11:36:53;12.50;99.90
39277;DHT22;63149;48.086;-1.606;2022-11-18T11:42:19;12.60;99.90
39277;DHT22;63149;48.086;-1.606;2022-11-18T11:44:51;12.60;99.90
39277;DHT22;63149;48.086;-1.606;2022-11-18T11:47:24;12.60;99.90
39277;DHT22;63149;48.086;-1.606;2022-11-18T11:52:47;15.10;99.90
39277;DHT22;63149;48.086;-1.606;2022-11-18T11:55:17;14.70;99.90
39277;DHT22;63149;48.086;-1.606;2022-11-18T11:57:51;15.70;99.90
39277;DHT22;63149;48.086;-1.606;2022-11-18T12:00:20;18.00;99.90
39277;DHT22;63149;48.086;-1.606;2022-11-18T12:02:52;18.80;99.90
39277;DHT22;63149;48.086;-1.606;2022-11-18T12:05:23;19.70;99.90
39277;DHT22;63149;48.086;-1.606;2022-11-18T12:07:52;20.20;99.90
39277;DHT22;63149;48.086;-1.606;2022-11-18T12:10:33;21.00;99.90
39277;DHT22;63149;48.086;-1.606;2022-11-18T12:15:45;21.40;99.90
39277;DHT22;63149;48.086;-1.606;2022-11-18T12:18:17;21.40;99.90
39277;DHT22;63149;48.086;-1.606;2022-11-18T12:20:46;22.20;99.90
39277;DHT22;63149;48.086;-1.606;2022-11-18T12:23:14;21.00;99.90
39277;DHT22;63149;48.086;-1.606;2022-11-18T12:25:42;21.30;99.90
39277;DHT22;63149;48.086;-1.606;2022-11-18T12:28:09;22.70;99.90
39277;DHT22;63149;48.086;-1.606;2022-11-18T12:30:36;23.00;99.90
39277;DHT22;63149;48.086;-1.606;2022-11-18T12:33:03;23.20;99.90
39277;DHT22;63149;48.086;-1.606;2022-11-18T12:35:31;22.40;99.90
39277;DHT22;63149;48.086;-1.606;2022-11-18T12:38:01;22.30;99.90
39277;DHT22;63149;48.086;-1.606;2022-11-18T12:40:38;23.00;99.90
39277;DHT22;63149;48.086;-1.606;2022-11-18T12:44:05;22.60;99.90
39277;DHT22;63149;48.086;-1.606;2022-11-18T12:46:09;23.10;99.90
39277;DHT22;63149;48.086;-1.606;2022-11-18T12:48:39;22.70;99.90
39277;DHT22;63149;48.086;-1.606;2022-11-18T12:53:50;21.70;99.90
39277;DHT22;63149;48.086;-1.606;2022-11-18T12:56:20;21.60;99.90
39277;DHT22;63149;48.086;-1.606;2022-11-18T12:58:47;22.20;99.90
39277;DHT22;63149;48.086;-1.606;2022-11-18T13:01:15;21.40;99.90
39277;DHT22;63149;48.086;-1.606;2022-11-18T13:03:42;21.50;99.90
39277;DHT22;63149;48.086;-1.606;2022-11-18T13:06:24;20.50;99.90
39277;DHT22;63149;48.086;-1.606;2022-11-18T13:08:52;19.70;99.90
39277;DHT22;63149;48.086;-1.606;2022-11-18T13:11:20;20.10;99.90
39277;DHT22;63149;48.086;-1.606;2022-11-18T13:14:04;19.90;99.90
39277;DHT22;63149;48.086;-1.606;2022-11-18T13:16:49;21.20;99.90
39277;DHT22;63149;48.086;-1.606;2022-11-18T13:19:33;21.00;99.90
39277;DHT22;63149;48.086;-1.606;2022-11-18T13:22:01;21.20;99.90
39277;DHT22;63149;48.086;-1.606;2022-11-18T13:24:46;21.90;99.90
39277;DHT22;63149;48.086;-1.606;2022-11-18T13:27:19;22.30;99.90
39277;DHT22;63149;48.086;-1.606;2022-11-18T13:29:47;22.30;99.90
39277;DHT22;63149;48.086;-1.606;2022-11-18T13:32:19;20.90;99.90
39277;DHT22;63149;48.086;-1.606;2022-11-18T13:34:47;19.10;99.90
39277;DHT22;63149;48.086;-1.606;2022-11-18T13:37:17;18.50;99.90
39277;DHT22;63149;48.086;-1.606;2022-11-18T13:39:45;18.30;99.90
39277;DHT22;63149;48.086;-1.606;2022-11-18T13:42:15;18.40;99.90
39277;DHT22;63149;48.086;-1.606;2022-11-18T13:44:43;17.40;99.90
39277;DHT22;63149;48.086;-1.606;2022-11-18T13:47:12;17.00;99.90
39277;DHT22;63149;48.086;-1.606;2022-11-18T13:49:48;16.80;99.90
39277;DHT22;63149;48.086;-1.606;2022-11-18T13:52:21;16.90;99.90
39277;DHT22;63149;48.086;-1.606;2022-11-18T13:54:49;16.50;99.90
39277;DHT22;63149;48.086;-1.606;2022-11-18T13:57:16;15.80;99.90
39277;DHT22;63149;48.086;-1.606;2022-11-18T13:59:45;15.80;99.90
39277;DHT22;63149;48.086;-1.606;2022-11-18T14:02:12;15.20;99.90
39277;DHT22;63149;48.086;-1.606;2022-11-18T14:04:44;15.20;99.90
39277;DHT22;63149;48.086;-1.606;2022-11-18T14:07:22;15.00;99.90
39277;DHT22;63149;48.086;-1.606;2022-11-18T14:09:53;15.00;99.90
39277;DHT22;63149;48.086;-1.606;2022-11-18T14:12:21;14.70;99.90
39277;DHT22;63149;48.086;-1.606;2022-11-18T14:14:48;14.70;99.90
39277;DHT22;63149;48.086;-1.606;2022-11-18T14:17:16;14.60;99.90
39277;DHT22;63149;48.086;-1.606;2022-11-18T14:19:43;14.50;99.90
39277;DHT22;63149;48.086;-1.606;2022-11-18T14:22:11;14.00;99.90
39277;DHT22;63149;48.086;-1.606;2022-11-18T14:24:40;13.30;99.90
39277;DHT22;63149;48.086;-1.606;2022-11-18T14:29:52;12.00;99.90
39277;DHT22;63149;48.086;-1.606;2022-11-18T14:32:19;11.90;99.90
39277;DHT22;63149;48.086;-1.606;2022-11-18T14:34:55;11.80;99.90
39277;DHT22;63149;48.086;-1.606;2022-11-18T14:37:22;11.70;99.90
39277;DHT22;63149;48.086;-1.606;2022-11-18T14:39:54;11.60;99.90
39277;DHT22;63149;48.086;-1.606;2022-11-18T14:42:21;11.50;99.90
39277;DHT22;63149;48.086;-1.606;2022-11-18T14:44:48;11.70;99.90
39277;DHT22;63149;48.086;-1.606;2022-11-18T14:47:17;11.90;99.90
39277;DHT22;63149;48.086;-1.606;2022-11-18T14:49:45;12.00;99.90
39277;DHT22;63149;48.086;-1.606;2022-11-18T14:52:12;12.20;99.90
39277;DHT22;63149;48.086;-1.606;2022-11-18T14:54:39;12.30;99.90
39277;DHT22;63149;48.086;-1.606;2022-11-18T14:57:09;12.30;99.90
39277;DHT22;63149;48.086;-1.606;2022-11-18T14:59:36;12.20;99.90
39277;DHT22;63149;48.086;-1.606;2022-11-18T15:02:03;12.10;99.90
39277;DHT22;63149;48.086;-1.606;2022-11-18T15:04:29;12.10;99.90
39277;DHT22;63149;48.086;-1.606;2022-11-18T15:06:56;12.10;99.90
39277;DHT22;63149;48.086;-1.606;2022-11-18T15:09:23;12.00;99.90
39277;DHT22;63149;48.086;-1.606;2022-11-18T15:11:49;12.00;99.90
39277;DHT22;63149;48.086;-1.606;2022-11-18T15:14:17;12.10;99.90
39277;DHT22;63149;48.086;-1.606;2022-11-18T15:16:44;11.90;99.90
39277;DHT22;63149;48.086;-1.606;2022-11-18T15:19:12;11.80;99.90
39277;DHT22;63149;48.086;-1.606;2022-11-18T15:21:40;11.80;99.90
39277;DHT22;63149;48.086;-1.606;2022-11-18T15:24:07;11.70;99.90
39277;DHT22;63149;48.086;-1.606;2022-11-18T15:26:34;11.50;99.90
39277;DHT22;63149;48.086;-1.606;2022-11-18T15:29:01;11.30;99.90
39277;DHT22;63149;48.086;-1.606;2022-11-18T15:31:30;11.10;99.90
39277;DHT22;63149;48.086;-1.606;2022-11-18T15:33:56;11.00;99.90
39277;DHT22;63149;48.086;-1.606;2022-11-18T15:36:24;10.80;99.90
39277;DHT22;63149;48.086;-1.606;2022-11-18T15:38:51;10.90;99.90
39277;DHT22;63149;48.086;-1.606;2022-11-18T15:41:19;11.00;99.90
39277;DHT22;63149;48.086;-1.606;2022-11-18T15:43:46;10.80;99.90
39277;DHT22;63149;48.086;-1.606;2022-11-18T15:46:13;11.00;99.90
39277;DHT22;63149;48.086;-1.606;2022-11-18T15:48:41;11.10;99.90
39277;DHT22;63149;48.086;-1.606;2022-11-18T15:51:08;11.20;99.90
39277;DHT22;63149;48.086;-1.606;2022-11-18T15:53:35;11.10;99.90
39277;DHT22;63149;48.086;-1.606;2022-11-18T15:58:56;10.90;99.90
39277;DHT22;63149;48.086;-1.606;2022-11-18T16:01:23;10.90;99.90
39277;DHT22;63149;48.086;-1.606;2022-11-18T16:03:51;11.00;99.90
39277;DHT22;63149;48.086;-1.606;2022-11-18T16:06:18;11.10;99.90
39277;DHT22;63149;48.086;-1.606;2022-11-18T16:08:45;11.10;99.90
39277;DHT22;63149;48.086;-1.606;2022-11-18T16:11:12;11.10;99.90
39277;DHT22;63149;48.086;-1.606;2022-11-18T16:14:00;11.10;99.90
39277;DHT22;63149;48.086;-1.606;2022-11-18T16:16:27;11.10;99.90
39277;DHT22;63149;48.086;-1.606;2022-11-18T16:18:55;11.10;99.90
39277;DHT22;63149;48.086;-1.606;2022-11-18T16:21:23;11.00;99.90
39277;DHT22;63149;48.086;-1.606;2022-11-18T16:23:52;11.00;99.90
39277;DHT22;63149;48.086;-1.606;2022-11-18T16:26:19;11.00;99.90
39277;DHT22;63149;48.086;-1.606;2022-11-18T16:28:46;10.70;99.90
39277;DHT22;63149;48.086;-1.606;2022-11-18T16:31:13;10.60;99.90
39277;DHT22;63149;48.086;-1.606;2022-11-18T16:33:58;10.60;99.90
39277;DHT22;63149;48.086;-1.606;2022-11-18T16:36:25;9.90;99.90
39277;DHT22;63149;48.086;-1.606;2022-11-18T16:38:52;10.10;99.90
39277;DHT22;63149;48.086;-1.606;2022-11-18T16:41:19;10.20;99.90
39277;DHT22;63149;48.086;-1.606;2022-11-18T16:43:58;10.20;99.90
39277;DHT22;63149;48.086;-1.606;2022-11-18T16:46:24;10.30;99.90
39277;DHT22;63149;48.086;-1.606;2022-11-18T16:48:51;10.30;99.90
39277;DHT22;63149;48.086;-1.606;2022-11-18T16:51:20;10.30;99.90
39277;DHT22;63149;48.086;-1.606;2022-11-18T16:53:50;10.20;99.90
39277;DHT22;63149;48.086;-1.606;2022-11-18T16:56:18;10.00;99.90
39277;DHT22;63149;48.086;-1.606;2022-11-18T16:58:45;10.00;99.90
39277;DHT22;63149;48.086;-1.606;2022-11-18T17:01:12;10.00;99.90
39277;DHT22;63149;48.086;-1.606;2022-11-18T17:03:38;10.00;99.90
39277;DHT22;63149;48.086;-1.606;2022-11-18T17:06:05;9.90;99.90
39277;DHT22;63149;48.086;-1.606;2022-11-18T17:08:33;9.90;99.90
39277;DHT22;63149;48.086;-1.606;2022-11-18T17:11:04;9.80;99.90
39277;DHT22;63149;48.086;-1.606;2022-11-18T17:13:31;9.60;99.90
39277;DHT22;63149;48.086;-1.606;2022-11-18T17:15:58;9.40;99.90
39277;DHT22;63149;48.086;-1.606;2022-11-18T17:18:28;9.10;99.90
39277;DHT22;63149;48.086;-1.606;2022-11-18T17:20:55;8.90;99.90
39277;DHT22;63149;48.086;-1.606;2022-11-18T17:23:21;8.80;99.90
39277;DHT22;63149;48.086;-1.606;2022-11-18T17:25:49;9.00;99.90
39277;DHT22;63149;48.086;-1.606;2022-11-18T17:28:16;9.10;99.90
39277;DHT22;63149;48.086;-1.606;2022-11-18T17:30:43;9.00;99.90
39277;DHT22;63149;48.086;-1.606;2022-11-18T17:33:09;9.10;99.90
39277;DHT22;63149;48.086;-1.606;2022-11-18T17:35:36;9.10;99.90
39277;DHT22;63149;48.086;-1.606;2022-11-18T17:38:03;9.10;99.90
39277;DHT22;63149;48.086;-1.606;2022-11-18T17:40:30;9.10;99.90
39277;DHT22;63149;48.086;-1.606;2022-11-18T17:42:58;9.10;99.90
39277;DHT22;63149;48.086;-1.606;2022-11-18T17:45:24;9.10;99.90
39277;DHT22;63149;48.086;-1.606;2022-11-18T17:47:51;9.00;99.90
39277;DHT22;63149;48.086;-1.606;2022-11-18T17:50:18;8.70;99.90
39277;DHT22;63149;48.086;-1.606;2022-11-18T17:52:44;8.70;99.90
39277;DHT22;63149;48.086;-1.606;2022-11-18T17:55:11;8.80;99.90
39277;DHT22;63149;48.086;-1.606;2022-11-18T17:57:38;8.60;99.90
39277;DHT22;63149;48.086;-1.606;2022-11-18T18:00:06;8.60;99.90
39277;DHT22;63149;48.086;-1.606;2022-11-18T18:02:33;8.60;99.90
39277;DHT22;63149;48.086;-1.606;2022-11-18T18:05:02;8.60;99.90
39277;DHT22;63149;48.086;-1.606;2022-11-18T18:07:28;8.60;99.90
39277;DHT22;63149;48.086;-1.606;2022-11-18T18:09:55;8.60;99.90
39277;DHT22;63149;48.086;-1.606;2022-11-18T18:12:22;8.60;99.90
39277;DHT22;63149;48.086;-1.606;2022-11-18T18:15:08;8.60;99.90
39277;DHT22;63149;48.086;-1.606;2022-11-18T18:17:34;8.60;99.90
39277;DHT22;63149;48.086;-1.606;2022-11-18T18:20:01;8.60;99.90
39277;DHT22;63149;48.086;-1.606;2022-11-18T18:22:28;8.50;99.90
39277;DHT22;63149;48.086;-1.606;2022-11-18T18:24:54;8.60;99.90
39277;DHT22;63149;48.086;-1.606;2022-11-18T18:27:21;8.60;99.90
39277;DHT22;63149;48.086;-1.606;2022-11-18T18:29:48;8.60;99.90
39277;DHT22;63149;48.086;-1.606;2022-11-18T18:32:16;8.50;99.90
39277;DHT22;63149;48.086;-1.606;2022-11-18T18:34:43;8.50;99.90
39277;DHT22;63149;48.086;-1.606;2022-11-18T18:37:09;8.50;99.90
39277;DHT22;63149;48.086;-1.606;2022-11-18T18:39:36;8.50;99.90
39277;DHT22;63149;48.086;-1.606;2022-11-18T18:42:03;8.30;99.90
39277;DHT22;63149;48.086;-1.606;2022-11-18T18:44:29;8.00;99.90
39277;DHT22;63149;48.086;-1.606;2022-11-18T18:47:10;8.10;99.90
39277;DHT22;63149;48.086;-1.606;2022-11-18T18:49:38;8.20;99.90
39277;DHT22;63149;48.086;-1.606;2022-11-18T18:52:05;8.20;99.90
39277;DHT22;63149;48.086;-1.606;2022-11-18T18:54:31;8.20;99.90
39277;DHT22;63149;48.086;-1.606;2022-11-18T18:56:58;8.10;99.90
39277;DHT22;63149;48.086;-1.606;2022-11-18T18:59:26;8.00;99.90
39277;DHT22;63149;48.086;-1.606;2022-11-18T19:01:53;7.90;99.90
39277;DHT22;63149;48.086;-1.606;2022-11-18T19:04:20;7.90;99.90
39277;DHT22;63149;48.086;-1.606;2022-11-18T19:06:48;7.90;99.90
39277;DHT22;63149;48.086;-1.606;2022-11-18T19:09:14;7.70;99.90
39277;DHT22;63149;48.086;-1.606;2022-11-18T19:11:41;7.50;99.90
39277;DHT22;63149;48.086;-1.606;2022-11-18T19:14:26;7.50;99.90
39277;DHT22;63149;48.086;-1.606;2022-11-18T19:16:53;7.40;99.90
39277;DHT22;63149;48.086;-1.606;2022-11-18T19:19:20;7.50;99.90
39277;DHT22;63149;48.086;-1.606;2022-11-18T19:22:10;7.50;99.90
39277;DHT22;63149;48.086;-1.606;2022-11-18T19:24:37;7.40;99.90
39277;DHT22;63149;48.086;-1.606;2022-11-18T19:27:04;7.50;99.90
39277;DHT22;63149;48.086;-1.606;2022-11-18T19:29:31;7.50;99.90
39277;DHT22;63149;48.086;-1.606;2022-11-18T19:31:58;7.50;99.90
39277;DHT22;63149;48.086;-1.606;2022-11-18T19:34:24;7.50;99.90
39277;DHT22;63149;48.086;-1.606;2022-11-18T19:36:51;7.50;99.90
39277;DHT22;63149;48.086;-1.606;2022-11-18T19:39:19;7.30;99.90
39277;DHT22;63149;48.086;-1.606;2022-11-18T19:41:46;7.20;99.90
39277;DHT22;63149;48.086;-1.606;2022-11-18T19:44:12;7.20;99.90
39277;DHT22;63149;48.086;-1.606;2022-11-18T19:46:39;7.20;99.90
39277;DHT22;63149;48.086;-1.606;2022-11-18T19:49:07;7.20;99.90
39277;DHT22;63149;48.086;-1.606;2022-11-18T19:51:34;7.20;99.90
39277;DHT22;63149;48.086;-1.606;2022-11-18T19:54:01;7.20;99.90
39277;DHT22;63149;48.086;-1.606;2022-11-18T19:56:30;7.20;99.90
39277;DHT22;63149;48.086;-1.606;2022-11-18T19:58:57;7.20;99.90
39277;DHT22;63149;48.086;-1.606;2022-11-18T20:01:25;7.20;99.90
39277;DHT22;63149;48.086;-1.606;2022-11-18T20:03:53;7.10;99.90
39277;DHT22;63149;48.086;-1.606;2022-11-18T20:06:20;7.10;99.90
39277;DHT22;63149;48.086;-1.606;2022-11-18T20:08:47;7.10;99.90
39277;DHT22;63149;48.086;-1.606;2022-11-18T20:11:15;7.00;99.90
39277;DHT22;63149;48.086;-1.606;2022-11-18T20:13:43;7.10;99.90
39277;DHT22;63149;48.086;-1.606;2022-11-18T20:16:11;7.10;99.90
39277;DHT22;63149;48.086;-1.606;2022-11-18T20:18:40;7.00;99.90
39277;DHT22;63149;48.086;-1.606;2022-11-18T20:21:08;7.00;99.90
39277;DHT22;63149;48.086;-1.606;2022-11-18T20:23:35;6.90;99.90
39277;DHT22;63149;48.086;-1.606;2022-11-18T20:26:03;6.80;99.90
39277;DHT22;63149;48.086;-1.606;2022-11-18T20:28:31;6.60;99.90
39277;DHT22;63149;48.086;-1.606;2022-11-18T20:30:59;6.70;99.90
39277;DHT22;63149;48.086;-1.606;2022-11-18T20:33:26;6.70;99.90
39277;DHT22;63149;48.086;-1.606;2022-11-18T20:35:54;6.80;99.90
39277;DHT22;63149;48.086;-1.606;2022-11-18T20:38:20;6.70;99.90
39277;DHT22;63149;48.086;-1.606;2022-11-18T20:40:47;6.40;99.90
39277;DHT22;63149;48.086;-1.606;2022-11-18T20:43:14;6.20;99.90
39277;DHT22;63149;48.086;-1.606;2022-11-18T20:45:40;6.20;99.90
39277;DHT22;63149;48.086;-1.606;2022-11-18T20:48:10;6.30;99.90
39277;DHT22;63149;48.086;-1.606;2022-11-18T20:50:38;6.30;99.90
39277;DHT22;63149;48.086;-1.606;2022-11-18T20:53:05;6.20;99.90
39277;DHT22;63149;48.086;-1.606;2022-11-18T20:55:34;6.30;99.90
39277;DHT22;63149;48.086;-1.606;2022-11-18T20:58:00;6.40;99.90
39277;DHT22;63149;48.086;-1.606;2022-11-18T21:00:27;6.50;99.90
39277;DHT22;63149;48.086;-1.606;2022-11-18T21:02:54;6.50;99.90
39277;DHT22;63149;48.086;-1.606;2022-11-18T21:05:22;6.60;99.90
39277;DHT22;63149;48.086;-1.606;2022-11-18T21:07:49;6.60;99.90
39277;DHT22;63149;48.086;-1.606;2022-11-18T21:10:17;6.60;99.90
39277;DHT22;63149;48.086;-1.606;2022-11-18T21:12:44;6.60;99.90
39277;DHT22;63149;48.086;-1.606;2022-11-18T21:15:25;6.60;99.90
39277;DHT22;63149;48.086;-1.606;2022-11-18T21:17:51;6.50;99.90
39277;DHT22;63149;48.086;-1.606;2022-11-18T21:20:18;6.60;99.90
39277;DHT22;63149;48.086;-1.606;2022-11-18T21:23:04;6.50;99.90
39277;DHT22;63149;48.086;-1.606;2022-11-18T21:25:30;6.50;99.90
39277;DHT22;63149;48.086;-1.606;2022-11-18T21:27:57;6.40;99.90
39277;DHT22;63149;48.086;-1.606;2022-11-18T21:30:24;6.40;99.90
39277;DHT22;63149;48.086;-1.606;2022-11-18T21:32:51;6.30;99.90
39277;DHT22;63149;48.086;-1.606;2022-11-18T21:35:17;6.10;99.90
39277;DHT22;63149;48.086;-1.606;2022-11-18T21:37:44;5.90;99.90
39277;DHT22;63149;48.086;-1.606;2022-11-18T21:40:12;5.60;99.90
39277;DHT22;63149;48.086;-1.606;2022-11-18T21:42:39;5.70;99.90
39277;DHT22;63149;48.086;-1.606;2022-11-18T21:45:06;5.70;99.90
39277;DHT22;63149;48.086;-1.606;2022-11-18T21:47:33;5.90;99.90
39277;DHT22;63149;48.086;-1.606;2022-11-18T21:50:00;6.00;99.90
39277;DHT22;63149;48.086;-1.606;2022-11-18T21:52:27;6.00;99.90
39277;DHT22;63149;48.086;-1.606;2022-11-18T21:54:54;6.00;99.90
39277;DHT22;63149;48.086;-1.606;2022-11-18T21:57:22;6.00;99.90
39277;DHT22;63149;48.086;-1.606;2022-11-18T21:59:49;6.00;99.90
39277;DHT22;63149;48.086;-1.606;2022-11-18T22:02:15;6.00;99.90
39277;DHT22;63149;48.086;-1.606;2022-11-18T22:04:42;6.00;99.90
39277;DHT22;63149;48.086;-1.606;2022-11-18T22:07:18;5.60;99.90
39277;DHT22;63149;48.086;-1.606;2022-11-18T22:09:45;5.50;99.90
39277;DHT22;63149;48.086;-1.606;2022-11-18T22:12:11;5.50;99.90
39277;DHT22;63149;48.086;-1.606;2022-11-18T22:14:39;5.60;99.90
39277;DHT22;63149;48.086;-1.606;2022-11-18T22:17:06;5.60;99.90
39277;DHT22;63149;48.086;-1.606;2022-11-18T22:19:33;5.10;99.90
39277;DHT22;63149;48.086;-1.606;2022-11-18T22:22:00;5.20;99.90
39277;DHT22;63149;48.086;-1.606;2022-11-18T22:24:27;5.30;99.90
39277;DHT22;63149;48.086;-1.606;2022-11-18T22:26:53;5.40;99.90